Terminal Aerodrome Forecast
Issued by NWS Bismarck, ND

Home | Current Version | Previous Version | Graphics & Text | Print | Product List | Glossary On
Versions: 1 2 3 4 5 6 7 8 9 10 11 12 13 14 15 16 17 18
000
FTUS43 KBIS 211725 AAA
TAFBIS
TAF AMD
KBIS 211725Z 2117/2218 28012KT P6SM SCT250
     FM220200 33009KT P6SM SCT250
     FM220600 28004KT P6SM BKN110
     FM221400 36007KT P6SM BKN100=

USA.gov is the U.S. government's official web portal to all federal, state and local government web resources and services.